sensor_id;sensor_type;location;lat;lon;timestamp;temperature;humidity
9941;DHT22;5009;50.656;7.188;2023-04-10T02:43:49;5.80;99.90
9941;DHT22;5009;50.656;7.188;2023-04-10T02:46:15;5.80;99.90
9941;DHT22;5009;50.656;7.188;2023-04-10T02:48:40;5.80;99.90
9941;DHT22;5009;50.656;7.188;2023-04-10T02:51:06;5.80;99.90
9941;DHT22;5009;50.656;7.188;2023-04-10T02:53:32;5.80;99.90
9941;DHT22;5009;50.656;7.188;2023-04-10T02:55:59;5.80;99.90
9941;DHT22;5009;50.656;7.188;2023-04-10T02:58:26;5.80;99.90
9941;DHT22;5009;50.656;7.188;2023-04-10T03:00:52;5.90;99.90
9941;DHT22;5009;50.656;7.188;2023-04-10T03:03:18;5.80;99.90
9941;DHT22;5009;50.656;7.188;2023-04-10T03:05:45;5.80;99.90
9941;DHT22;5009;50.656;7.188;2023-04-10T03:08:12;5.80;99.90
9941;DHT22;5009;50.656;7.188;2023-04-10T03:10:38;5.80;99.90
9941;DHT22;5009;50.656;7.188;2023-04-10T03:13:04;5.90;99.90
9941;DHT22;5009;50.656;7.188;2023-04-10T03:15:29;5.90;99.90
9941;DHT22;5009;50.656;7.188;2023-04-10T03:17:55;5.80;99.90
9941;DHT22;5009;50.656;7.188;2023-04-10T03:20:21;5.70;99.90
9941;DHT22;5009;50.656;7.188;2023-04-10T03:22:46;5.70;99.90
9941;DHT22;5009;50.656;7.188;2023-04-10T03:25:12;5.60;99.90
9941;DHT22;5009;50.656;7.188;2023-04-10T03:27:38;5.70;99.90
9941;DHT22;5009;50.656;7.188;2023-04-10T03:30:04;5.60;99.90
9941;DHT22;5009;50.656;7.188;2023-04-10T03:32:30;5.60;99.90
9941;DHT22;5009;50.656;7.188;2023-04-10T03:34:56;5.50;99.90
9941;DHT22;5009;50.656;7.188;2023-04-10T03:37:22;5.50;99.90
9941;DHT22;5009;50.656;7.188;2023-04-10T03:39:48;5.50;99.90
9941;DHT22;5009;50.656;7.188;2023-04-10T03:42:13;5.60;99.90
9941;DHT22;5009;50.656;7.188;2023-04-10T03:44:39;5.60;99.90
9941;DHT22;5009;50.656;7.188;2023-04-10T03:47:04;5.50;99.90
9941;DHT22;5009;50.656;7.188;2023-04-10T03:49:30;5.50;99.90
9941;DHT22;5009;50.656;7.188;2023-04-10T03:51:55;5.50;99.90
9941;DHT22;5009;50.656;7.188;2023-04-10T03:54:21;5.50;99.90
9941;DHT22;5009;50.656;7.188;2023-04-10T03:56:46;5.60;99.90
9941;DHT22;5009;50.656;7.188;2023-04-10T03:59:12;5.60;99.90
9941;DHT22;5009;50.656;7.188;2023-04-10T04:01:37;5.50;99.90
9941;DHT22;5009;50.656;7.188;2023-04-10T04:04:04;5.50;99.90
9941;DHT22;5009;50.656;7.188;2023-04-10T04:06:30;5.50;99.90
9941;DHT22;5009;50.656;7.188;2023-04-10T04:08:56;5.50;99.90
9941;DHT22;5009;50.656;7.188;2023-04-10T04:11:21;5.50;99.90
9941;DHT22;5009;50.656;7.188;2023-04-10T04:13:47;5.40;99.90
9941;DHT22;5009;50.656;7.188;2023-04-10T04:16:13;5.40;99.90
9941;DHT22;5009;50.656;7.188;2023-04-10T04:18:38;5.40;99.90
9941;DHT22;5009;50.656;7.188;2023-04-10T04:21:04;5.40;99.90
9941;DHT22;5009;50.656;7.188;2023-04-10T04:23:30;5.50;99.90
9941;DHT22;5009;50.656;7.188;2023-04-10T04:25:56;5.50;99.90
9941;DHT22;5009;50.656;7.188;2023-04-10T04:28:22;5.50;99.90
9941;DHT22;5009;50.656;7.188;2023-04-10T04:30:47;5.50;99.90
9941;DHT22;5009;50.656;7.188;2023-04-10T04:33:13;5.40;99.90
9941;DHT22;5009;50.656;7.188;2023-04-10T04:35:38;5.40;99.90
9941;DHT22;5009;50.656;7.188;2023-04-10T04:38:04;5.30;99.90
9941;DHT22;5009;50.656;7.188;2023-04-10T04:40:30;5.30;99.90
9941;DHT22;5009;50.656;7.188;2023-04-10T04:42:56;5.30;99.90
9941;DHT22;5009;50.656;7.188;2023-04-10T04:45:22;5.20;99.90
9941;DHT22;5009;50.656;7.188;2023-04-10T04:47:48;5.20;99.90
9941;DHT22;5009;50.656;7.188;2023-04-10T04:50:14;5.20;99.90
9941;DHT22;5009;50.656;7.188;2023-04-10T04:52:40;5.20;99.90
9941;DHT22;5009;50.656;7.188;2023-04-10T04:55:06;5.10;99.90
9941;DHT22;5009;50.656;7.188;2023-04-10T04:57:31;5.10;99.90
9941;DHT22;5009;50.656;7.188;2023-04-10T04:59:57;5.10;99.90
9941;DHT22;5009;50.656;7.188;2023-04-10T05:02:22;5.10;99.90
9941;DHT22;5009;50.656;7.188;2023-04-10T05:04:48;5.10;99.90
9941;DHT22;5009;50.656;7.188;2023-04-10T05:07:13;5.10;99.90
9941;DHT22;5009;50.656;7.188;2023-04-10T05:09:40;5.10;99.90
9941;DHT22;5009;50.656;7.188;2023-04-10T05:12:05;5.10;99.90
9941;DHT22;5009;50.656;7.188;2023-04-10T05:14:31;5.20;99.90
9941;DHT22;5009;50.656;7.188;2023-04-10T05:16:56;5.30;99.90
9941;DHT22;5009;50.656;7.188;2023-04-10T05:19:22;5.40;99.90
9941;DHT22;5009;50.656;7.188;2023-04-10T05:21:47;5.50;99.90
9941;DHT22;5009;50.656;7.188;2023-04-10T05:24:13;5.60;99.90
9941;DHT22;5009;50.656;7.188;2023-04-10T05:26:39;5.70;99.90
9941;DHT22;5009;50.656;7.188;2023-04-10T05:29:07;5.80;99.90
9941;DHT22;5009;50.656;7.188;2023-04-10T05:31:32;6.00;99.90
9941;DHT22;5009;50.656;7.188;2023-04-10T05:33:58;6.00;99.90
9941;DHT22;5009;50.656;7.188;2023-04-10T05:36:24;6.20;99.90
9941;DHT22;5009;50.656;7.188;2023-04-10T05:38:50;6.30;99.90
9941;DHT22;5009;50.656;7.188;2023-04-10T05:41:15;6.50;99.90
9941;DHT22;5009;50.656;7.188;2023-04-10T05:43:41;6.70;99.90
9941;DHT22;5009;50.656;7.188;2023-04-10T05:46:06;7.00;99.90
9941;DHT22;5009;50.656;7.188;2023-04-10T05:48:32;7.20;99.90
9941;DHT22;5009;50.656;7.188;2023-04-10T05:50:57;7.40;99.90
9941;DHT22;5009;50.656;7.188;2023-04-10T05:53:28;7.50;99.90
9941;DHT22;5009;50.656;7.188;2023-04-10T05:55:57;7.60;99.90
9941;DHT22;5009;50.656;7.188;2023-04-10T05:58:24;7.80;99.90
9941;DHT22;5009;50.656;7.188;2023-04-10T06:00:50;8.10;99.90
9941;DHT22;5009;50.656;7.188;2023-04-10T06:03:17;8.30;99.90
9941;DHT22;5009;50.656;7.188;2023-04-10T06:05:42;8.80;99.90
9941;DHT22;5009;50.656;7.188;2023-04-10T06:08:08;9.50;99.00
9941;DHT22;5009;50.656;7.188;2023-04-10T06:10:33;10.10;95.20
9941;DHT22;5009;50.656;7.188;2023-04-10T06:12:59;10.70;93.90
9941;DHT22;5009;50.656;7.188;2023-04-10T06:15:26;10.80;91.70
9941;DHT22;5009;50.656;7.188;2023-04-10T06:17:51;11.30;91.80
9941;DHT22;5009;50.656;7.188;2023-04-10T06:20:18;11.40;90.10
9941;DHT22;5009;50.656;7.188;2023-04-10T06:22:43;11.40;89.50
9941;DHT22;5009;50.656;7.188;2023-04-10T06:25:10;11.40;88.30
9941;DHT22;5009;50.656;7.188;2023-04-10T06:27:36;11.30;88.70
9941;DHT22;5009;50.656;7.188;2023-04-10T06:30:01;11.40;87.60
9941;DHT22;5009;50.656;7.188;2023-04-10T06:32:27;11.10;87.90
9941;DHT22;5009;50.656;7.188;2023-04-10T06:34:53;11.50;88.10
9941;DHT22;5009;50.656;7.188;2023-04-10T06:37:19;11.80;87.50
9941;DHT22;5009;50.656;7.188;2023-04-10T06:39:51;12.00;86.70
9941;DHT22;5009;50.656;7.188;2023-04-10T06:42:16;12.40;85.70
9941;DHT22;5009;50.656;7.188;2023-04-10T06:44:41;12.80;84.70
9941;DHT22;5009;50.656;7.188;2023-04-10T06:47:07;12.90;83.10
9941;DHT22;5009;50.656;7.188;2023-04-10T06:49:33;13.00;82.30
9941;DHT22;5009;50.656;7.188;2023-04-10T06:52:00;13.40;82.20
9941;DHT22;5009;50.656;7.188;2023-04-10T06:54:25;13.90;79.30
9941;DHT22;5009;50.656;7.188;2023-04-10T06:56:51;14.60;78.20
9941;DHT22;5009;50.656;7.188;2023-04-10T06:59:16;14.70;74.50
9941;DHT22;5009;50.656;7.188;2023-04-10T07:01:42;14.90;75.00
9941;DHT22;5009;50.656;7.188;2023-04-10T07:04:07;16.10;71.90
9941;DHT22;5009;50.656;7.188;2023-04-10T07:06:33;16.40;68.20
9941;DHT22;5009;50.656;7.188;2023-04-10T07:08:58;16.30;66.20
9941;DHT22;5009;50.656;7.188;2023-04-10T07:11:24;17.30;63.20
9941;DHT22;5009;50.656;7.188;2023-04-10T07:13:49;17.30;61.00
9941;DHT22;5009;50.656;7.188;2023-04-10T07:16:17;17.20;60.60
9941;DHT22;5009;50.656;7.188;2023-04-10T07:18:43;17.70;59.20
9941;DHT22;5009;50.656;7.188;2023-04-10T07:21:10;16.90;59.10
9941;DHT22;5009;50.656;7.188;2023-04-10T07:23:36;17.00;58.40
9941;DHT22;5009;50.656;7.188;2023-04-10T07:26:02;16.60;58.80
9941;DHT22;5009;50.656;7.188;2023-04-10T07:28:28;16.70;59.00
9941;DHT22;5009;50.656;7.188;2023-04-10T07:30:53;16.90;58.00
9941;DHT22;5009;50.656;7.188;2023-04-10T07:33:19;17.10;58.20
9941;DHT22;5009;50.656;7.188;2023-04-10T07:35:44;17.20;57.60
9941;DHT22;5009;50.656;7.188;2023-04-10T07:38:11;16.50;57.20
9941;DHT22;5009;50.656;7.188;2023-04-10T07:40:37;16.00;57.90
9941;DHT22;5009;50.656;7.188;2023-04-10T07:43:03;16.10;57.90
9941;DHT22;5009;50.656;7.188;2023-04-10T07:45:28;16.00;58.40
9941;DHT22;5009;50.656;7.188;2023-04-10T07:47:54;16.20;58.30
9941;DHT22;5009;50.656;7.188;2023-04-10T07:50:19;16.00;57.40
9941;DHT22;5009;50.656;7.188;2023-04-10T07:52:45;16.10;58.80
9941;DHT22;5009;50.656;7.188;2023-04-10T07:55:10;16.00;58.00
9941;DHT22;5009;50.656;7.188;2023-04-10T07:57:36;16.00;57.80
9941;DHT22;5009;50.656;7.188;2023-04-10T08:00:02;15.80;57.60
9941;DHT22;5009;50.656;7.188;2023-04-10T08:02:27;15.90;57.80
9941;DHT22;5009;50.656;7.188;2023-04-10T08:04:53;15.60;58.20
9941;DHT22;5009;50.656;7.188;2023-04-10T08:07:19;15.40;57.80
9941;DHT22;5009;50.656;7.188;2023-04-10T08:09:46;15.60;57.70
9941;DHT22;5009;50.656;7.188;2023-04-10T08:12:12;15.30;57.30
9941;DHT22;5009;50.656;7.188;2023-04-10T08:14:38;15.60;58.20
9941;DHT22;5009;50.656;7.188;2023-04-10T08:17:03;15.70;57.20
9941;DHT22;5009;50.656;7.188;2023-04-10T08:19:29;15.80;56.70
9941;DHT22;5009;50.656;7.188;2023-04-10T08:21:54;15.90;57.30
9941;DHT22;5009;50.656;7.188;2023-04-10T08:24:20;16.40;57.00
9941;DHT22;5009;50.656;7.188;2023-04-10T08:26:47;16.30;55.80
9941;DHT22;5009;50.656;7.188;2023-04-10T08:29:13;16.00;55.50
9941;DHT22;5009;50.656;7.188;2023-04-10T08:31:38;16.20;56.20
9941;DHT22;5009;50.656;7.188;2023-04-10T08:34:04;16.20;56.30
9941;DHT22;5009;50.656;7.188;2023-04-10T08:36:30;16.40;57.50
9941;DHT22;5009;50.656;7.188;2023-04-10T08:38:55;16.80;57.90
9941;DHT22;5009;50.656;7.188;2023-04-10T08:41:21;16.60;57.70
9941;DHT22;5009;50.656;7.188;2023-04-10T08:43:47;16.30;56.50
9941;DHT22;5009;50.656;7.188;2023-04-10T08:46:14;16.90;57.10
9941;DHT22;5009;50.656;7.188;2023-04-10T08:48:52;17.50;57.80
9941;DHT22;5009;50.656;7.188;2023-04-10T08:51:21;17.50;56.00
9941;DHT22;5009;50.656;7.188;2023-04-10T08:53:50;16.90;56.30
9941;DHT22;5009;50.656;7.188;2023-04-10T08:56:17;17.20;56.90
9941;DHT22;5009;50.656;7.188;2023-04-10T08:58:43;17.00;56.80
9941;DHT22;5009;50.656;7.188;2023-04-10T09:01:10;17.00;56.50
9941;DHT22;5009;50.656;7.188;2023-04-10T09:03:36;16.80;55.80
9941;DHT22;5009;50.656;7.188;2023-04-10T09:06:03;17.00;55.70
9941;DHT22;5009;50.656;7.188;2023-04-10T09:08:29;16.70;55.20
9941;DHT22;5009;50.656;7.188;2023-04-10T09:10:55;16.70;55.10
9941;DHT22;5009;50.656;7.188;2023-04-10T09:13:38;16.60;55.40
9941;DHT22;5009;50.656;7.188;2023-04-10T09:16:04;16.60;55.40
9941;DHT22;5009;50.656;7.188;2023-04-10T09:18:49;16.20;55.40
9941;DHT22;5009;50.656;7.188;2023-04-10T09:21:18;16.30;55.90
9941;DHT22;5009;50.656;7.188;2023-04-10T09:23:44;16.20;55.50
9941;DHT22;5009;50.656;7.188;2023-04-10T09:28:56;16.00;55.60
9941;DHT22;5009;50.656;7.188;2023-04-10T09:36:35;16.00;55.70
9941;DHT22;5009;50.656;7.188;2023-04-10T09:39:02;15.70;55.50
9941;DHT22;5009;50.656;7.188;2023-04-10T09:41:28;15.80;56.20
9941;DHT22;5009;50.656;7.188;2023-04-10T09:44:08;16.00;55.80
9941;DHT22;5009;50.656;7.188;2023-04-10T09:46:33;16.10;55.60
9941;DHT22;5009;50.656;7.188;2023-04-10T09:48:59;16.30;56.00
9941;DHT22;5009;50.656;7.188;2023-04-10T09:51:33;16.40;55.60
9941;DHT22;5009;50.656;7.188;2023-04-10T09:54:01;16.50;55.40
9941;DHT22;5009;50.656;7.188;2023-04-10T09:56:28;16.50;55.40
9941;DHT22;5009;50.656;7.188;2023-04-10T09:58:57;16.40;54.80
9941;DHT22;5009;50.656;7.188;2023-04-10T10:01:25;16.50;55.30
9941;DHT22;5009;50.656;7.188;2023-04-10T10:03:53;16.60;55.30
9941;DHT22;5009;50.656;7.188;2023-04-10T10:06:19;16.60;54.70
9941;DHT22;5009;50.656;7.188;2023-04-10T10:08:45;16.80;54.90
9941;DHT22;5009;50.656;7.188;2023-04-10T10:11:14;16.80;54.40
9941;DHT22;5009;50.656;7.188;2023-04-10T10:13:49;16.80;54.30
9941;DHT22;5009;50.656;7.188;2023-04-10T10:16:43;16.60;53.50
9941;DHT22;5009;50.656;7.188;2023-04-10T10:21:37;16.90;54.00
9941;DHT22;5009;50.656;7.188;2023-04-10T10:24:07;17.00;54.40
9941;DHT22;5009;50.656;7.188;2023-04-10T10:26:34;17.20;53.90
9941;DHT22;5009;50.656;7.188;2023-04-10T10:29:04;17.20;53.90
9941;DHT22;5009;50.656;7.188;2023-04-10T10:31:32;17.20;53.10
9941;DHT22;5009;50.656;7.188;2023-04-10T10:34:00;17.20;52.90
9941;DHT22;5009;50.656;7.188;2023-04-10T10:36:44;17.10;52.90
9941;DHT22;5009;50.656;7.188;2023-04-10T10:39:27;17.00;52.90
9941;DHT22;5009;50.656;7.188;2023-04-10T10:42:08;17.10;52.90
9941;DHT22;5009;50.656;7.188;2023-04-10T10:47:27;17.00;52.40
9941;DHT22;5009;50.656;7.188;2023-04-10T10:52:41;16.90;52.20
9941;DHT22;5009;50.656;7.188;2023-04-10T10:58:06;17.20;52.80
9941;DHT22;5009;50.656;7.188;2023-04-10T11:01:04;17.30;52.00
9941;DHT22;5009;50.656;7.188;2023-04-10T11:03:30;17.50;52.50
9941;DHT22;5009;50.656;7.188;2023-04-10T11:05:58;17.50;52.00
9941;DHT22;5009;50.656;7.188;2023-04-10T11:11:10;17.60;52.00
9941;DHT22;5009;50.656;7.188;2023-04-10T11:14:23;17.40;50.50
9941;DHT22;5009;50.656;7.188;2023-04-10T11:16:41;17.60;51.10
9941;DHT22;5009;50.656;7.188;2023-04-10T11:19:09;17.70;51.10
9941;DHT22;5009;50.656;7.188;2023-04-10T11:24:25;17.80;50.60
9941;DHT22;5009;50.656;7.188;2023-04-10T11:26:51;17.80;50.10
9941;DHT22;5009;50.656;7.188;2023-04-10T11:31:55;18.10;50.10
9941;DHT22;5009;50.656;7.188;2023-04-10T11:34:21;18.20;49.90
9941;DHT22;5009;50.656;7.188;2023-04-10T11:36:47;18.30;50.00
9941;DHT22;5009;50.656;7.188;2023-04-10T11:39:14;18.50;50.20
9941;DHT22;5009;50.656;7.188;2023-04-10T11:41:44;18.50;49.50
9941;DHT22;5009;50.656;7.188;2023-04-10T11:46:45;18.30;48.20
9941;DHT22;5009;50.656;7.188;2023-04-10T11:49:22;18.20;48.00
9941;DHT22;5009;50.656;7.188;2023-04-10T11:51:49;18.20;47.30
9941;DHT22;5009;50.656;7.188;2023-04-10T11:54:23;18.10;47.10
9941;DHT22;5009;50.656;7.188;2023-04-10T11:57:02;18.00;47.10
9941;DHT22;5009;50.656;7.188;2023-04-10T11:59:29;18.00;47.60
9941;DHT22;5009;50.656;7.188;2023-04-10T12:04:30;18.20;47.30
9941;DHT22;5009;50.656;7.188;2023-04-10T12:06:56;18.10;46.70
9941;DHT22;5009;50.656;7.188;2023-04-10T12:09:22;18.00;45.80
9941;DHT22;5009;50.656;7.188;2023-04-10T12:11:49;18.00;46.30
9941;DHT22;5009;50.656;7.188;2023-04-10T12:14:16;18.10;46.50
9941;DHT22;5009;50.656;7.188;2023-04-10T12:16:42;18.30;46.40
9941;DHT22;5009;50.656;7.188;2023-04-10T12:19:09;18.20;45.60
9941;DHT22;5009;50.656;7.188;2023-04-10T12:21:35;18.30;46.10
9941;DHT22;5009;50.656;7.188;2023-04-10T12:24:01;18.30;45.90
9941;DHT22;5009;50.656;7.188;2023-04-10T12:26:26;18.20;45.80
9941;DHT22;5009;50.656;7.188;2023-04-10T12:28:53;18.30;45.80
9941;DHT22;5009;50.656;7.188;2023-04-10T12:31:34;18.30;45.50
9941;DHT22;5009;50.656;7.188;2023-04-10T12:34:02;18.40;45.40
9941;DHT22;5009;50.656;7.188;2023-04-10T12:36:30;18.50;45.60
9941;DHT22;5009;50.656;7.188;2023-04-10T12:38:59;18.50;45.70
9941;DHT22;5009;50.656;7.188;2023-04-10T12:41:26;18.60;45.10
9941;DHT22;5009;50.656;7.188;2023-04-10T12:43:53;18.60;45.60
9941;DHT22;5009;50.656;7.188;2023-04-10T12:46:30;18.60;45.50
9941;DHT22;5009;50.656;7.188;2023-04-10T12:49:14;18.50;44.90
9941;DHT22;5009;50.656;7.188;2023-04-10T12:51:44;18.50;44.80
9941;DHT22;5009;50.656;7.188;2023-04-10T12:54:11;18.60;45.40
9941;DHT22;5009;50.656;7.188;2023-04-10T12:56:50;18.60;45.20
9941;DHT22;5009;50.656;7.188;2023-04-10T12:59:16;18.70;45.20
9941;DHT22;5009;50.656;7.188;2023-04-10T13:01:42;18.60;45.00
9941;DHT22;5009;50.656;7.188;2023-04-10T13:04:08;18.60;44.80
9941;DHT22;5009;50.656;7.188;2023-04-10T13:06:44;18.70;45.40
9941;DHT22;5009;50.656;7.188;2023-04-10T13:09:11;18.70;45.60
9941;DHT22;5009;50.656;7.188;2023-04-10T13:11:37;18.70;45.20
9941;DHT22;5009;50.656;7.188;2023-04-10T13:14:02;18.50;45.40
9941;DHT22;5009;50.656;7.188;2023-04-10T13:16:28;18.60;45.80
9941;DHT22;5009;50.656;7.188;2023-04-10T13:18:54;18.70;45.60
9941;DHT22;5009;50.656;7.188;2023-04-10T13:21:20;18.70;45.50
9941;DHT22;5009;50.656;7.188;2023-04-10T13:23:50;18.70;45.70
9941;DHT22;5009;50.656;7.188;2023-04-10T13:26:16;18.60;45.30
9941;DHT22;5009;50.656;7.188;2023-04-10T13:28:42;18.60;45.60
9941;DHT22;5009;50.656;7.188;2023-04-10T13:31:07;18.60;45.60
9941;DHT22;5009;50.656;7.188;2023-04-10T13:33:33;18.40;45.40
9941;DHT22;5009;50.656;7.188;2023-04-10T13:35:58;18.50;46.60
9941;DHT22;5009;50.656;7.188;2023-04-10T13:38:24;18.70;46.40
9941;DHT22;5009;50.656;7.188;2023-04-10T13:40:51;18.70;45.80
9941;DHT22;5009;50.656;7.188;2023-04-10T13:43:17;18.60;45.40
9941;DHT22;5009;50.656;7.188;2023-04-10T13:45:43;18.60;45.80
9941;DHT22;5009;50.656;7.188;2023-04-10T13:48:08;18.70;45.90
9941;DHT22;5009;50.656;7.188;2023-04-10T13:50:34;18.60;45.20
9941;DHT22;5009;50.656;7.188;2023-04-10T13:52:59;18.70;45.60
9941;DHT22;5009;50.656;7.188;2023-04-10T13:55:25;18.90;45.90
9941;DHT22;5009;50.656;7.188;2023-04-10T13:57:51;18.80;45.30
9941;DHT22;5009;50.656;7.188;2023-04-10T14:00:17;18.90;45.40
9941;DHT22;5009;50.656;7.188;2023-04-10T14:02:42;19.00;45.30
9941;DHT22;5009;50.656;7.188;2023-04-10T14:05:08;19.00;44.40
9941;DHT22;5009;50.656;7.188;2023-04-10T14:07:34;19.00;44.60
9941;DHT22;5009;50.656;7.188;2023-04-10T14:10:01;19.10;44.50
9941;DHT22;5009;50.656;7.188;2023-04-10T14:12:26;19.10;44.70
9941;DHT22;5009;50.656;7.188;2023-04-10T14:14:52;19.20;44.50
9941;DHT22;5009;50.656;7.188;2023-04-10T14:17:18;19.30;44.70
9941;DHT22;5009;50.656;7.188;2023-04-10T14:19:43;19.40;44.20
9941;DHT22;5009;50.656;7.188;2023-04-10T14:22:11;19.40;44.10
9941;DHT22;5009;50.656;7.188;2023-04-10T14:24:37;19.60;44.80
9941;DHT22;5009;50.656;7.188;2023-04-10T14:27:02;19.60;44.10
9941;DHT22;5009;50.656;7.188;2023-04-10T14:29:28;19.70;44.40
9941;DHT22;5009;50.656;7.188;2023-04-10T14:31:55;19.70;43.50
9941;DHT22;5009;50.656;7.188;2023-04-10T14:34:20;19.80;43.40
9941;DHT22;5009;50.656;7.188;2023-04-10T14:36:46;19.60;43.10
9941;DHT22;5009;50.656;7.188;2023-04-10T14:39:12;19.60;43.30
9941;DHT22;5009;50.656;7.188;2023-04-10T14:41:37;19.40;43.10
9941;DHT22;5009;50.656;7.188;2023-04-10T14:44:03;19.40;43.60
9941;DHT22;5009;50.656;7.188;2023-04-10T14:46:28;19.40;43.50
9941;DHT22;5009;50.656;7.188;2023-04-10T14:48:54;19.50;43.50
9941;DHT22;5009;50.656;7.188;2023-04-10T14:51:20;19.60;43.30
9941;DHT22;5009;50.656;7.188;2023-04-10T14:53:45;19.60;43.30
9941;DHT22;5009;50.656;7.188;2023-04-10T14:56:12;19.70;43.40
9941;DHT22;5009;50.656;7.188;2023-04-10T14:58:38;19.80;43.00
9941;DHT22;5009;50.656;7.188;2023-04-10T15:01:08;19.80;43.00
9941;DHT22;5009;50.656;7.188;2023-04-10T15:03:33;19.90;43.00
9941;DHT22;5009;50.656;7.188;2023-04-10T15:06:00;19.80;42.70
9941;DHT22;5009;50.656;7.188;2023-04-10T15:08:25;19.80;42.00
9941;DHT22;5009;50.656;7.188;2023-04-10T15:10:51;19.60;41.80
9941;DHT22;5009;50.656;7.188;2023-04-10T15:13:19;19.70;42.10
9941;DHT22;5009;50.656;7.188;2023-04-10T15:15:44;19.80;42.10
9941;DHT22;5009;50.656;7.188;2023-04-10T15:18:10;19.70;41.90
9941;DHT22;5009;50.656;7.188;2023-04-10T15:20:36;19.50;41.90
9941;DHT22;5009;50.656;7.188;2023-04-10T15:23:03;19.50;42.20
9941;DHT22;5009;50.656;7.188;2023-04-10T15:25:30;19.40;42.20
9941;DHT22;5009;50.656;7.188;2023-04-10T15:27:56;19.40;42.60
9941;DHT22;5009;50.656;7.188;2023-04-10T15:30:22;19.40;43.00
9941;DHT22;5009;50.656;7.188;2023-04-10T15:32:47;19.40;43.30
9941;DHT22;5009;50.656;7.188;2023-04-10T15:35:13;19.40;43.50
9941;DHT22;5009;50.656;7.188;2023-04-10T15:37:39;19.40;43.50
9941;DHT22;5009;50.656;7.188;2023-04-10T15:40:05;19.30;43.50
9941;DHT22;5009;50.656;7.188;2023-04-10T15:42:32;19.30;43.50
9941;DHT22;5009;50.656;7.188;2023-04-10T15:44:58;19.30;43.70
9941;DHT22;5009;50.656;7.188;2023-04-10T15:47:24;19.10;43.70
9941;DHT22;5009;50.656;7.188;2023-04-10T15:49:49;19.00;43.70
9941;DHT22;5009;50.656;7.188;2023-04-10T15:52:15;18.90;43.30
9941;DHT22;5009;50.656;7.188;2023-04-10T15:54:41;18.80;43.30
9941;DHT22;5009;50.656;7.188;2023-04-10T15:57:06;18.70;43.70
9941;DHT22;5009;50.656;7.188;2023-04-10T15:59:32;18.60;43.80
9941;DHT22;5009;50.656;7.188;2023-04-10T16:01:58;18.60;44.00
9941;DHT22;5009;50.656;7.188;2023-04-10T16:04:24;18.50;43.60
9941;DHT22;5009;50.656;7.188;2023-04-10T16:06:49;18.50;43.70
9941;DHT22;5009;50.656;7.188;2023-04-10T16:09:15;18.40;44.00
9941;DHT22;5009;50.656;7.188;2023-04-10T16:11:41;18.30;44.00
9941;DHT22;5009;50.656;7.188;2023-04-10T16:14:07;18.20;44.20
9941;DHT22;5009;50.656;7.188;2023-04-10T16:16:33;18.00;44.20
9941;DHT22;5009;50.656;7.188;2023-04-10T16:18:58;18.00;44.20
9941;DHT22;5009;50.656;7.188;2023-04-10T16:21:25;17.90;44.20
9941;DHT22;5009;50.656;7.188;2023-04-10T16:23:51;17.80;44.50
9941;DHT22;5009;50.656;7.188;2023-04-10T16:26:17;17.80;44.60
9941;DHT22;5009;50.656;7.188;2023-04-10T16:28:43;17.80;44.60
9941;DHT22;5009;50.656;7.188;2023-04-10T16:31:08;17.70;44.70
9941;DHT22;5009;50.656;7.188;2023-04-10T16:33:34;17.60;44.90
9941;DHT22;5009;50.656;7.188;2023-04-10T16:36:00;17.60;44.90
9941;DHT22;5009;50.656;7.188;2023-04-10T16:38:29;17.60;45.20
9941;DHT22;5009;50.656;7.188;2023-04-10T16:40:55;17.60;45.40
9941;DHT22;5009;50.656;7.188;2023-04-10T16:43:21;17.50;45.50
9941;DHT22;5009;50.656;7.188;2023-04-10T16:45:53;17.40;45.40
9941;DHT22;5009;50.656;7.188;2023-04-10T16:48:20;17.40;45.70
9941;DHT22;5009;50.656;7.188;2023-04-10T16:50:45;17.20;45.80
9941;DHT22;5009;50.656;7.188;2023-04-10T16:53:11;17.20;46.00
9941;DHT22;5009;50.656;7.188;2023-04-10T16:55:36;17.10;45.90
9941;DHT22;5009;50.656;7.188;2023-04-10T16:58:02;17.10;46.00
9941;DHT22;5009;50.656;7.188;2023-04-10T17:00:28;17.10;46.10
9941;DHT22;5009;50.656;7.188;2023-04-10T17:02:53;17.10;46.40
9941;DHT22;5009;50.656;7.188;2023-04-10T17:05:19;17.10;46.50
9941;DHT22;5009;50.656;7.188;2023-04-10T17:07:45;17.10;46.70
9941;DHT22;5009;50.656;7.188;2023-04-10T17:10:10;17.00;46.80
9941;DHT22;5009;50.656;7.188;2023-04-10T17:12:36;17.00;47.20
9941;DHT22;5009;50.656;7.188;2023-04-10T17:15:02;16.90;47.20
9941;DHT22;5009;50.656;7.188;2023-04-10T17:17:28;16.90;47.30
9941;DHT22;5009;50.656;7.188;2023-04-10T17:19:53;16.80;47.40
9941;DHT22;5009;50.656;7.188;2023-04-10T17:22:19;16.80;47.50
9941;DHT22;5009;50.656;7.188;2023-04-10T17:24:47;16.80;47.50
9941;DHT22;5009;50.656;7.188;2023-04-10T17:27:13;16.70;47.80
9941;DHT22;5009;50.656;7.188;2023-04-10T17:29:38;16.70;47.40
9941;DHT22;5009;50.656;7.188;2023-04-10T17:32:05;16.60;47.50
9941;DHT22;5009;50.656;7.188;2023-04-10T17:34:31;16.60;47.50
9941;DHT22;5009;50.656;7.188;2023-04-10T17:36:58;16.60;47.60
9941;DHT22;5009;50.656;7.188;2023-04-10T17:39:23;16.60;47.70
9941;DHT22;5009;50.656;7.188;2023-04-10T17:41:50;16.60;47.90
9941;DHT22;5009;50.656;7.188;2023-04-10T17:44:15;16.50;48.00
9941;DHT22;5009;50.656;7.188;2023-04-10T17:46:41;16.50;48.10
9941;DHT22;5009;50.656;7.188;2023-04-10T17:49:06;16.40;48.10
9941;DHT22;5009;50.656;7.188;2023-04-10T17:51:33;16.40;48.40
9941;DHT22;5009;50.656;7.188;2023-04-10T17:53:58;16.30;48.50
9941;DHT22;5009;50.656;7.188;2023-04-10T17:56:25;16.30;48.80
9941;DHT22;5009;50.656;7.188;2023-04-10T17:58:52;16.30;49.00
9941;DHT22;5009;50.656;7.188;2023-04-10T18:01:24;16.30;49.20
9941;DHT22;5009;50.656;7.188;2023-04-10T18:03:58;16.20;49.40
9941;DHT22;5009;50.656;7.188;2023-04-10T18:06:24;16.20;49.80
9941;DHT22;5009;50.656;7.188;2023-04-10T18:08:51;16.30;50.30
9941;DHT22;5009;50.656;7.188;2023-04-10T18:11:16;16.20;50.50
9941;DHT22;5009;50.656;7.188;2023-04-10T18:13:42;16.20;50.80
9941;DHT22;5009;50.656;7.188;2023-04-10T18:16:08;16.20;51.10
9941;DHT22;5009;50.656;7.188;2023-04-10T18:18:35;16.20;51.40
9941;DHT22;5009;50.656;7.188;2023-04-10T18:21:05;16.20;51.80
9941;DHT22;5009;50.656;7.188;2023-04-10T18:23:31;16.20;52.10
9941;DHT22;5009;50.656;7.188;2023-04-10T18:25:58;16.20;52.50
9941;DHT22;5009;50.656;7.188;2023-04-10T18:28:24;16.20;52.80
9941;DHT22;5009;50.656;7.188;2023-04-10T18:30:50;16.10;53.40
9941;DHT22;5009;50.656;7.188;2023-04-10T18:33:18;16.10;54.10
9941;DHT22;5009;50.656;7.188;2023-04-10T18:35:48;16.10;54.50
9941;DHT22;5009;50.656;7.188;2023-04-10T18:38:14;16.10;55.70
9941;DHT22;5009;50.656;7.188;2023-04-10T18:40:40;16.00;56.20
9941;DHT22;5009;50.656;7.188;2023-04-10T18:43:05;16.00;58.10
9941;DHT22;5009;50.656;7.188;2023-04-10T18:45:31;15.90;58.80
9941;DHT22;5009;50.656;7.188;2023-04-10T18:47:58;15.80;59.50
9941;DHT22;5009;50.656;7.188;2023-04-10T18:50:24;15.80;59.50
9941;DHT22;5009;50.656;7.188;2023-04-10T18:52:50;15.80;60.60
9941;DHT22;5009;50.656;7.188;2023-04-10T18:55:15;15.80;60.50
9941;DHT22;5009;50.656;7.188;2023-04-10T18:57:41;15.80;62.70
9941;DHT22;5009;50.656;7.188;2023-04-10T19:00:07;15.70;62.60
9941;DHT22;5009;50.656;7.188;2023-04-10T19:02:33;15.70;62.80
9941;DHT22;5009;50.656;7.188;2023-04-10T19:04:59;15.70;63.80
9941;DHT22;5009;50.656;7.188;2023-04-10T19:07:24;15.70;65.10
9941;DHT22;5009;50.656;7.188;2023-04-10T19:09:50;15.70;64.10
9941;DHT22;5009;50.656;7.188;2023-04-10T19:12:16;15.70;64.70
9941;DHT22;5009;50.656;7.188;2023-04-10T19:14:41;15.70;63.60
9941;DHT22;5009;50.656;7.188;2023-04-10T19:17:07;15.70;64.70